Time;durP1;ratioP1;P1;durP2;ratioP2;P2;SDS_P1;SDS_P2;PMS_P1;PMS_P2;Temp;Humidity;BMP_temperature;BMP_pressure;BME280_temperature;BME280_humidity;BME280_pressure;Samples;Min_cycle;Max_cycle;Signal;HPM_P1;HPM_P2
2022/04/13 00:01:28;;;;;;;;;;;;;;;12.75;100.00;100295.72;5076439;28;20006;-79
2022/04/13 00:03:56;;;;;;;;;;;;;;;12.75;100.00;100287.78;5075958;28;20045;-81
2022/04/13 00:06:21;;;;;;;;;;;;;;;12.75;100.00;100265.75;5076308;28;19969;-81
2022/04/13 00:08:46;;;;;;;;;;;;;;;12.76;100.00;100262.25;5076419;28;19920;-80
2022/04/13 00:11:13;;;;;;;;;;;;;;;12.82;100.00;100259.72;5075906;28;19920;-80
2022/04/13 00:13:39;;;;;;;;;;;;;;;12.85;100.00;100267.69;5076437;28;19920;-80
2022/04/13 00:16:04;;;;;;;;;;;;;;;12.94;100.00;100266.94;5108732;28;19926;-81
2022/04/13 00:18:29;;;;;;;;;;;;;;;12.98;100.00;100274.06;5075042;28;19924;-82
2022/04/13 00:20:55;;;;;;;;;;;;;;;13.05;100.00;100260.09;5089687;28;19920;-82
2022/04/13 00:23:23;;;;;;;;;;;;;;;13.12;100.00;100269.00;5076031;28;19916;-82
2022/04/13 00:25:48;;;;;;;;;;;;;;;13.18;100.00;100269.13;5106085;28;19920;-82
2022/04/13 00:28:14;;;;;;;;;;;;;;;13.17;100.00;100269.97;5088934;28;19920;-81
2022/04/13 00:30:39;;;;;;;;;;;;;;;13.11;100.00;100277.81;5086433;28;19920;-82
2022/04/13 00:33:09;;;;;;;;;;;;;;;13.10;100.00;100283.97;5082848;28;20395;-81
2022/04/13 00:35:34;;;;;;;;;;;;;;;13.08;100.00;100281.31;5072844;28;20003;-79
2022/04/13 00:37:59;;;;;;;;;;;;;;;13.05;100.00;100286.53;5093291;28;19956;-78
2022/04/13 00:40:25;;;;;;;;;;;;;;;13.00;100.00;100287.31;5093508;28;20367;-78
2022/04/13 00:42:50;;;;;;;;;;;;;;;12.92;100.00;100288.06;5075208;28;19916;-79
2022/04/13 00:45:15;;;;;;;;;;;;;;;12.90;100.00;100292.44;5075319;28;20594;-81
2022/04/13 00:47:41;;;;;;;;;;;;;;;12.89;100.00;100281.84;5075656;28;20265;-77
2022/04/13 00:50:09;;;;;;;;;;;;;;;12.92;100.00;100282.78;5074703;28;20022;-79
2022/04/13 00:52:40;;;;;;;;;;;;;;;12.94;100.00;100272.22;5093394;28;19924;-81
2022/04/13 00:55:07;;;;;;;;;;;;;;;12.93;100.00;100281.03;5075195;28;20383;-81
2022/04/13 00:57:34;;;;;;;;;;;;;;;12.95;100.00;100274.03;5093177;28;19969;-79
2022/04/13 01:00:00;;;;;;;;;;;;;;;12.96;100.00;100262.59;5092965;28;19920;-81
2022/04/13 01:02:27;;;;;;;;;;;;;;;12.98;100.00;100267.91;5074860;28;19916;-79
2022/04/13 01:04:53;;;;;;;;;;;;;;;12.97;100.00;100266.13;5092554;28;19928;-78
2022/04/13 01:07:18;;;;;;;;;;;;;;;12.98;100.00;100268.78;5075537;28;20116;-78
2022/04/13 01:09:44;;;;;;;;;;;;;;;13.01;100.00;100263.56;5075000;28;19966;-80
2022/04/13 01:12:09;;;;;;;;;;;;;;;13.00;100.00;100250.31;5074865;28;20401;-78
2022/04/13 01:14:35;;;;;;;;;;;;;;;13.00;100.00;100243.25;5075216;28;19923;-78
2022/04/13 01:17:00;;;;;;;;;;;;;;;13.00;100.00;100234.44;5077701;28;19916;-78
2022/04/13 01:19:27;;;;;;;;;;;;;;;13.05;100.00;100231.03;5079522;28;20353;-79
2022/04/13 01:21:52;;;;;;;;;;;;;;;13.09;100.00;100219.63;5097091;28;19999;-80
2022/04/13 01:24:19;;;;;;;;;;;;;;;13.08;100.00;100216.94;5079214;28;20686;-79
2022/04/13 01:26:45;;;;;;;;;;;;;;;13.10;100.00;100205.56;5079467;28;20425;-78
2022/04/13 01:29:10;;;;;;;;;;;;;;;13.08;100.00;100203.75;5078819;28;19916;-80
2022/04/13 01:31:36;;;;;;;;;;;;;;;13.07;100.00;100199.34;5079385;28;19917;-80
2022/04/13 01:34:03;;;;;;;;;;;;;;;13.13;100.00;100180.03;5085400;28;19996;-79
2022/04/13 01:36:28;;;;;;;;;;;;;;;13.18;100.00;100175.72;5099128;28;20415;-80
2022/04/13 01:38:54;;;;;;;;;;;;;;;13.18;100.00;100168.66;5088990;28;19916;-81
2022/04/13 01:41:19;;;;;;;;;;;;;;;13.19;100.00;100165.16;5079065;28;19920;-80
2022/04/13 01:43:51;;;;;;;;;;;;;;;13.18;100.00;100159.84;5079165;28;19916;-81
2022/04/13 01:46:16;;;;;;;;;;;;;;;13.20;100.00;100161.63;5079285;28;19962;-82
2022/04/13 01:48:41;;;;;;;;;;;;;;;13.18;100.00;100163.38;5079377;28;19969;-81
2022/04/13 01:51:07;;;;;;;;;;;;;;;13.19;100.00;100154.59;5095315;28;20244;-81
2022/04/13 01:53:32;;;;;;;;;;;;;;;13.19;100.00;100159.88;5077306;28;19917;-78
2022/04/13 01:55:58;;;;;;;;;;;;;;;13.21;100.00;100154.59;5060757;28;20379;-79
2022/04/13 01:58:23;;;;;;;;;;;;;;;13.18;100.00;100146.63;5078544;28;20022;-79
2022/04/13 02:00:53;;;;;;;;;;;;;;;13.17;100.00;100144.84;5077567;28;20367;-78
2022/04/13 02:03:22;;;;;;;;;;;;;;;13.15;100.00;100133.38;5077355;28;19920;-78
2022/04/13 02:05:48;;;;;;;;;;;;;;;13.19;100.00;100138.72;5074375;28;19916;-80
2022/04/13 02:08:13;;;;;;;;;;;;;;;13.19;100.00;100136.09;5078513;28;19916;-79
2022/04/13 02:10:39;;;;;;;;;;;;;;;13.11;100.00;100137.72;5096481;28;20287;-79
2022/04/13 02:13:04;;;;;;;;;;;;;;;13.12;100.00;100128.91;5078028;28;19961;-81
2022/04/13 02:15:29;;;;;;;;;;;;;;;13.08;100.00;100141.22;5078671;28;19923;-81
2022/04/13 02:17:55;;;;;;;;;;;;;;;13.03;100.00;100131.44;5078039;28;19916;-79
2022/04/13 02:20:20;;;;;;;;;;;;;;;12.99;100.00;100127.88;5077994;28;19923;-80
2022/04/13 02:22:46;;;;;;;;;;;;;;;13.01;100.00;100118.19;5077768;28;20269;-80
2022/04/13 02:25:12;;;;;;;;;;;;;;;13.00;100.00;100123.47;5078196;28;19916;-82
2022/04/13 02:27:37;;;;;;;;;;;;;;;13.04;100.00;100120.00;5077167;28;19919;-81
2022/04/13 02:30:03;;;;;;;;;;;;;;;13.07;100.00;100114.75;5077508;28;20372;-81
2022/04/13 02:32:29;;;;;;;;;;;;;;;13.08;100.00;100109.50;5090061;28;19924;-81
2022/04/13 02:34:57;;;;;;;;;;;;;;;13.07;100.00;100107.72;5096010;28;19918;-81
2022/04/13 02:37:22;;;;;;;;;;;;;;;13.04;100.00;100097.09;5083812;28;19916;-81
2022/04/13 02:39:47;;;;;;;;;;;;;;;13.02;100.00;100082.06;5057773;28;19927;-80
2022/04/13 02:42:14;;;;;;;;;;;;;;;13.00;100.00;100083.81;5074818;28;20018;-81
2022/04/13 02:44:43;;;;;;;;;;;;;;;13.00;100.00;100076.75;5087000;28;19927;-81
2022/04/13 02:47:09;;;;;;;;;;;;;;;13.00;100.00;100073.25;5075322;28;19927;-81
2022/04/13 02:49:34;;;;;;;;;;;;;;;13.02;100.00;100075.06;5074517;28;19916;-80
2022/04/13 02:52:00;;;;;;;;;;;;;;;13.00;100.00;100076.75;5074268;28;19928;-81
2022/04/13 02:54:26;;;;;;;;;;;;;;;12.99;100.00;100074.09;5074344;28;20490;-80
2022/04/13 02:56:51;;;;;;;;;;;;;;;13.00;100.00;100073.25;5074107;28;19992;-81
2022/04/13 02:59:16;;;;;;;;;;;;;;;12.98;100.00;100069.69;5092879;28;19962;-81
2022/04/13 03:01:46;;;;;;;;;;;;;;;12.94;100.00;100060.81;5084165;28;20395;-81
2022/04/13 03:04:16;;;;;;;;;;;;;;;12.89;100.00;100058.13;5097666;28;20002;-81
2022/04/13 03:06:41;;;;;;;;;;;;;;;12.89;100.00;100057.25;5084156;28;20014;-81
2022/04/13 03:09:06;;;;;;;;;;;;;;;12.85;100.00;100050.13;5083259;28;19955;-80
2022/04/13 03:11:32;;;;;;;;;;;;;;;12.83;100.00;100051.88;5115705;28;20025;-81
2022/04/13 03:13:59;;;;;;;;;;;;;;;12.85;100.00;100044.84;5115748;28;19937;-82
2022/04/13 03:16:30;;;;;;;;;;;;;;;12.84;100.00;100046.59;5097319;28;20439;-79
2022/04/13 03:18:55;;;;;;;;;;;;;;;12.84;100.00;100040.44;5083927;28;19920;-81
2022/04/13 03:21:20;;;;;;;;;;;;;;;12.82;100.00;100040.44;5093856;28;19927;-82
2022/04/13 03:23:45;;;;;;;;;;;;;;;12.81;100.00;100040.41;5109411;28;19969;-81
2022/04/13 03:26:11;;;;;;;;;;;;;;;12.84;100.00;100033.41;5113454;28;20013;-78
2022/04/13 03:28:36;;;;;;;;;;;;;;;12.79;100.00;100026.28;5083089;28;19999;-78
2022/04/13 03:31:01;;;;;;;;;;;;;;;12.79;100.00;100034.22;5092453;28;19967;-76
2022/04/13 03:33:28;;;;;;;;;;;;;;;12.80;100.00;100030.69;5096889;28;19929;-79
2022/04/13 03:35:53;;;;;;;;;;;;;;;12.79;100.00;100035.09;5082411;28;19919;-79
2022/04/13 03:38:18;;;;;;;;;;;;;;;12.84;100.00;100030.75;5095690;28;19923;-78
2022/04/13 03:40:43;;;;;;;;;;;;;;;12.83;100.00;100028.97;5075257;28;19912;-79
2022/04/13 03:43:10;;;;;;;;;;;;;;;12.80;100.00;100025.41;5076985;28;20022;-80
2022/04/13 03:45:36;;;;;;;;;;;;;;;12.76;100.00;100024.50;5094559;28;19916;-81
2022/04/13 03:48:01;;;;;;;;;;;;;;;12.72;100.00;100020.94;5103263;28;19998;-81
2022/04/13 03:50:27;;;;;;;;;;;;;;;12.77;100.00;100018.34;5113707;28;19980;-78
2022/04/13 03:52:53;;;;;;;;;;;;;;;12.74;100.00;100021.81;5096302;28;19977;-81
2022/04/13 03:55:22;;;;;;;;;;;;;;;12.77;100.00;100018.34;5096653;28;19920;-82
2022/04/13 03:57:47;;;;;;;;;;;;;;;12.77;100.00;100012.16;5096484;28;19969;-81
2022/04/13 04:00:14;;;;;;;;;;;;;;;12.72;100.00;100017.38;5114424;28;19916;-80
2022/04/13 04:02:39;;;;;;;;;;;;;;;12.75;100.00;100012.13;5079402;28;19965;-80
2022/04/13 04:05:07;;;;;;;;;;;;;;;12.76;100.00;100011.28;5095971;28;19916;-78
2022/04/13 04:07:32;;;;;;;;;;;;;;;12.81;100.00;100012.22;5095839;28;19916;-78
2022/04/13 04:09:58;;;;;;;;;;;;;;;12.72;100.00;100017.38;5096082;28;19926;-80
2022/04/13 04:12:24;;;;;;;;;;;;;;;12.67;100.00;100009.38;5096421;28;19922;-79
2022/04/13 04:14:51;;;;;;;;;;;;;;;12.65;100.00;100005.84;5095611;28;19939;-78
2022/04/13 04:17:16;;;;;;;;;;;;;;;12.57;100.00;100011.03;5113111;28;19955;-78
2022/04/13 04:19:41;;;;;;;;;;;;;;;12.50;100.00;100011.78;5094210;28;19920;-77
2022/04/13 04:22:07;;;;;;;;;;;;;;;12.38;100.00;100008.97;5113258;28;20015;-77
2022/04/13 04:24:33;;;;;;;;;;;;;;;12.32;100.00;99998.31;5113518;28;20278;-77
2022/04/13 04:26:58;;;;;;;;;;;;;;;12.16;100.00;99992.78;5095437;28;19999;-77
2022/04/13 04:29:24;;;;;;;;;;;;;;;12.11;100.00;99978.63;5095634;28;19959;-78
2022/04/13 04:31:59;;;;;;;;;;;;;;;12.02;100.00;99975.84;5095398;28;19941;-77
2022/04/13 04:34:28;;;;;;;;;;;;;;;11.99;100.00;99928.31;5095530;28;20386;-77
2022/04/13 04:36:53;;;;;;;;;;;;;;;11.92;100.00;99906.22;5113295;28;19920;-77
2022/04/13 04:39:18;;;;;;;;;;;;;;;11.86;100.00;99891.16;5095233;28;19926;-78
2022/04/13 04:41:44;;;;;;;;;;;;;;;11.76;100.00;99881.34;5095745;28;20325;-78
2022/04/13 04:44:11;;;;;;;;;;;;;;;11.72;100.00;99866.31;5113146;28;19981;-78
2022/04/13 04:46:36;;;;;;;;;;;;;;;11.69;100.00;99866.28;5113789;28;19916;-78
2022/04/13 04:49:02;;;;;;;;;;;;;;;11.69;100.00;99847.81;5113134;28;19919;-77
2022/04/13 04:51:28;;;;;;;;;;;;;;;11.62;100.00;99835.38;5095053;28;20053;-79
2022/04/13 04:54:01;;;;;;;;;;;;;;;11.59;100.00;99819.53;5085990;28;19928;-78
2022/04/13 04:56:27;;;;;;;;;;;;;;;11.57;100.00;99806.31;5110867;28;19976;-80
2022/04/13 04:58:52;;;;;;;;;;;;;;;11.57;100.00;99786.97;5113289;28;20358;-77
2022/04/13 05:01:18;;;;;;;;;;;;;;;11.53;100.00;99779.88;5111897;28;19919;-78
2022/04/13 05:03:48;;;;;;;;;;;;;;;11.55;100.00;99767.63;5107534;28;19924;-78
2022/04/13 05:06:15;;;;;;;;;;;;;;;11.59;100.00;99743.06;5094234;28;20014;-78
2022/04/13 05:08:40;;;;;;;;;;;;;;;11.62;100.00;99740.47;5085774;28;20364;-77
2022/04/13 05:11:07;;;;;;;;;;;;;;;11.59;100.00;99733.41;5093488;28;19920;-77
2022/04/13 05:13:34;;;;;;;;;;;;;;;11.60;100.00;99707.94;5074598;28;20035;-77
2022/04/13 05:16:00;;;;;;;;;;;;;;;11.66;100.00;99692.19;5074386;28;20411;-77
2022/04/13 05:18:25;;;;;;;;;;;;;;;11.70;100.00;99678.19;5074948;28;19955;-78
2022/04/13 05:20:50;;;;;;;;;;;;;;;11.77;100.00;99656.28;5092862;28;19970;-77
2022/04/13 05:23:17;;;;;;;;;;;;;;;11.86;100.00;99644.97;5092452;28;19927;-77
2022/04/13 05:25:43;;;;;;;;;;;;;;;11.82;100.00;99641.41;5092779;28;20432;-77
2022/04/13 05:28:09;;;;;;;;;;;;;;;11.92;100.00;99633.59;5074467;28;19967;-78
2022/04/13 05:30:34;;;;;;;;;;;;;;;11.99;100.00;99632.81;5093161;28;19917;-77
2022/04/13 05:33:01;;;;;;;;;;;;;;;12.09;100.00;99637.34;5092109;28;20360;-77
2022/04/13 05:35:27;;;;;;;;;;;;;;;12.46;100.00;99637.69;5092951;28;19920;-78
2022/04/13 05:37:52;;;;;;;;;;;;;;;12.65;100.00;99636.09;5088071;28;20267;-78
2022/04/13 05:40:18;;;;;;;;;;;;;;;12.68;100.00;99661.66;5092952;28;20356;-78
2022/04/13 05:42:43;;;;;;;;;;;;;;;13.07;100.00;99666.34;5091634;28;20003;-77
2022/04/13 05:45:09;;;;;;;;;;;;;;;13.49;100.00;99690.44;5092334;28;19916;-77
2022/04/13 05:47:35;;;;;;;;;;;;;;;14.11;100.00;99723.34;5091420;28;19955;-76
2022/04/13 05:50:01;;;;;;;;;;;;;;;14.04;100.00;99800.06;5090997;28;19926;-77
2022/04/13 05:52:26;;;;;;;;;;;;;;;14.03;100.00;99853.88;5081035;28;19920;-76
2022/04/13 05:54:53;;;;;;;;;;;;;;;13.68;100.00;99899.50;5081849;28;19919;-77
2022/04/13 05:57:19;;;;;;;;;;;;;;;13.73;100.00;99921.59;5078639;28;20424;-77
2022/04/13 05:59:46;;;;;;;;;;;;;;;13.87;100.00;99933.16;5092073;28;19952;-76
2022/04/13 06:02:11;;;;;;;;;;;;;;;14.31;100.00;99956.44;5092761;28;19995;-77
2022/04/13 06:04:37;;;;;;;;;;;;;;;14.55;100.00;99989.25;5061102;28;19920;-76
2022/04/13 06:07:03;;;;;;;;;;;;;;;14.89;100.00;100016.84;5077428;28;20367;-77
2022/04/13 06:09:28;;;;;;;;;;;;;;;14.67;100.00;100057.38;5077622;28;19916;-76
2022/04/13 06:11:53;;;;;;;;;;;;;;;14.69;100.00;100088.28;5077109;28;19916;-76
2022/04/13 06:14:19;;;;;;;;;;;;;;;14.76;100.00;100104.22;5083069;28;20011;-77
2022/04/13 06:16:46;;;;;;;;;;;;;;;14.53;100.00;100129.63;5076958;28;20018;-77
2022/04/13 06:19:11;;;;;;;;;;;;;;;14.40;100.00;100148.06;5077475;28;20283;-77
2022/04/13 06:21:37;;;;;;;;;;;;;;;14.17;100.00;100144.31;5095220;28;19923;-77
2022/04/13 06:24:02;;;;;;;;;;;;;;;14.15;100.00;100148.72;5078059;28;19920;-77
2022/04/13 06:26:28;;;;;;;;;;;;;;;14.02;100.00;100157.41;5076722;28;19920;-78
2022/04/13 06:28:54;;;;;;;;;;;;;;;14.02;100.00;100162.69;5078149;28;19987;-77
2022/04/13 06:31:21;;;;;;;;;;;;;;;14.20;100.00;100172.59;5075656;28;19927;-78
2022/04/13 06:33:48;;;;;;;;;;;;;;;14.16;100.00;100187.56;5075992;28;19990;-77
2022/04/13 06:36:14;;;;;;;;;;;;;;;13.98;100.00;100195.28;5084144;28;20349;-78
2022/04/13 06:38:40;;;;;;;;;;;;;;;14.19;100.00;100213.19;5115312;28;19915;-76
2022/04/13 06:41:09;;;;;;;;;;;;;;;14.16;100.00;100221.09;5115307;28;19926;-76
2022/04/13 06:43:36;;;;;;;;;;;;;;;14.05;100.00;100233.31;5077598;28;19926;-76
2022/04/13 06:46:02;;;;;;;;;;;;;;;14.07;100.00;100236.88;5095142;28;19943;-77
2022/04/13 06:48:27;;;;;;;;;;;;;;;14.01;100.00;100245.63;5077005;28;20392;-76
2022/04/13 06:50:52;;;;;;;;;;;;;;;13.67;100.00;100252.22;5076713;28;20002;-75
2022/04/13 06:53:20;;;;;;;;;;;;;;;13.91;100.00;100247.25;5076753;28;19927;-76
2022/04/13 06:55:47;;;;;;;;;;;;;;;14.05;100.00;100255.38;5077232;28;19916;-76
2022/04/13 06:58:13;;;;;;;;;;;;;;;14.11;100.00;100260.75;5094912;28;20329;-75
2022/04/13 07:00:38;;;;;;;;;;;;;;;14.27;100.00;100258.28;5076840;28;19920;-77
2022/04/13 07:03:03;;;;;;;;;;;;;;;14.19;100.00;100271.44;5076332;28;20461;-75
2022/04/13 07:05:29;;;;;;;;;;;;;;;14.11;100.00;100283.69;5094820;28;19916;-76
2022/04/13 07:07:54;;;;;;;;;;;;;;;14.23;100.00;100289.16;5075988;28;19969;-76
2022/04/13 07:10:20;;;;;;;;;;;;;;;14.19;100.00;100297.91;5076897;28;19923;-76
2022/04/13 07:12:45;;;;;;;;;;;;;;;14.17;100.00;100299.66;5076653;28;19916;-77
2022/04/13 07:15:11;;;;;;;;;;;;;;;14.32;100.00;100305.13;5076353;28;19923;-77
2022/04/13 07:17:36;;;;;;;;;;;;;;;14.23;100.00;100309.44;5076605;28;19916;-77
2022/04/13 07:20:02;;;;;;;;;;;;;;;14.34;100.00;100316.63;5076593;28;20001;-76
2022/04/13 07:22:27;;;;;;;;;;;;;;;14.22;100.00;100336.78;5094266;28;20352;-76
2022/04/13 07:24:53;;;;;;;;;;;;;;;14.21;100.00;100332.34;5075796;28;20536;-77
2022/04/13 07:27:18;;;;;;;;;;;;;;;14.27;100.00;100338.63;5094686;28;19920;-77
2022/04/13 07:29:43;;;;;;;;;;;;;;;14.21;100.00;100343.81;5076074;28;20370;-77
2022/04/13 07:32:09;;;;;;;;;;;;;;;14.25;100.00;100350.06;5093879;28;19916;-76
2022/04/13 07:34:39;;;;;;;;;;;;;;;14.38;100.00;100351.13;5075791;28;20383;-76
2022/04/13 07:37:05;;;;;;;;;;;;;;;14.53;100.00;100359.25;5075834;28;20057;-75
2022/04/13 07:39:30;;;;;;;;;;;;;;;14.71;100.00;100375.41;5076210;28;19985;-76
2022/04/13 07:41:57;;;;;;;;;;;;;;;14.93;100.00;100380.94;5075556;28;19951;-76
2022/04/13 07:44:23;;;;;;;;;;;;;;;15.23;100.00;100387.41;5076045;28;19916;-77
2022/04/13 07:46:48;;;;;;;;;;;;;;;15.48;100.00;100398.25;5075623;28;20383;-77
2022/04/13 07:49:14;;;;;;;;;;;;;;;15.69;100.00;100424.97;5075383;28;20018;-76
2022/04/13 07:51:40;;;;;;;;;;;;;;;15.85;100.00;100425.09;5058956;28;19924;-76
2022/04/13 07:54:09;;;;;;;;;;;;;;;15.49;100.00;100447.78;5075681;28;19969;-76
2022/04/13 07:56:35;;;;;;;;;;;;;;;15.30;100.00;100458.19;5093261;28;19936;-76
2022/04/13 07:59:01;;;;;;;;;;;;;;;15.23;100.00;100456.38;5075236;28;19971;-76
2022/04/13 08:01:26;;;;;;;;;;;;;;;15.15;100.00;100456.28;5093146;28;19974;-76
2022/04/13 08:03:51;;;;;;;;;;;;;;;14.95;100.00;100450.75;5073772;28;19927;-76
2022/04/13 08:06:17;;;;;;;;;;;;;;;15.01;100.00;100458.78;5075206;28;19961;-76
2022/04/13 08:08:42;;;;;;;;;;;;;;;14.88;100.00;100455.13;5058510;28;19927;-77
2022/04/13 08:11:07;;;;;;;;;;;;;;;14.75;100.00;100457.59;5074891;28;19916;-76
2022/04/13 08:13:39;;;;;;;;;;;;;;;14.74;100.00;100451.38;5075219;28;20025;-76
2022/04/13 08:16:04;;;;;;;;;;;;;;;14.68;100.00;100454.88;5075259;28;19920;-77
2022/04/13 08:18:29;;;;;;;;;;;;;;;14.70;100.00;100466.38;5075261;28;19999;-75
2022/04/13 08:20:54;;;;;;;;;;;;;;;14.64;100.00;100471.59;5075036;28;19917;-77
2022/04/13 08:23:20;;;;;;;;;;;;;;;14.86;100.00;100464.78;5075204;28;19923;-77
2022/04/13 08:25:45;;;;;;;;;;;;;;;14.96;100.00;100463.16;5092517;28;19923;-77
2022/04/13 08:28:10;;;;;;;;;;;;;;;14.90;100.00;100479.88;5092612;28;19922;-77
2022/04/13 08:30:36;;;;;;;;;;;;;;;14.89;100.00;100498.41;5093435;28;20549;-77
2022/04/13 08:33:01;;;;;;;;;;;;;;;15.06;100.00;100490.66;5092277;28;19920;-79
2022/04/13 08:35:26;;;;;;;;;;;;;;;15.07;100.00;100493.34;5074850;28;19973;-76
2022/04/13 08:37:51;;;;;;;;;;;;;;;15.22;100.00;100499.69;5092620;28;19959;-76
2022/04/13 08:40:19;;;;;;;;;;;;;;;15.28;100.00;100497.09;5074836;28;19947;-76
2022/04/13 08:43:04;;;;;;;;;;;;;;;15.27;100.00;100503.25;5092833;28;20126;-78
2022/04/13 08:45:30;;;;;;;;;;;;;;;15.30;100.00;100508.59;5073396;28;19982;-78
2022/04/13 08:48:00;;;;;;;;;;;;;;;15.59;100.00;100508.03;5073552;28;19916;-75
2022/04/13 08:50:27;;;;;;;;;;;;;;;15.53;100.00;100516.81;5074327;28;19931;-75
2022/04/13 08:52:56;;;;;;;;;;;;;;;15.56;100.00;100519.50;5075301;28;20413;-75
2022/04/13 08:55:26;;;;;;;;;;;;;;;15.46;100.00;100532.66;5093842;28;19922;-76
2022/04/13 08:57:56;;;;;;;;;;;;;;;15.42;100.00;100535.28;5112970;28;19916;-76
2022/04/13 09:00:22;;;;;;;;;;;;;;;15.51;100.00;100531.84;5094822;28;20360;-76
2022/04/13 09:02:50;;;;;;;;;;;;;;;15.36;100.00;100537.84;5094458;28;19927;-76
2022/04/13 09:05:23;;;;;;;;;;;;;;;15.44;100.00;100543.25;5095051;28;20041;-76
2022/04/13 09:07:53;;;;;;;;;;;;;;;15.41;100.00;100553.81;5112559;28;20009;-76
2022/04/13 09:10:19;;;;;;;;;;;;;;;15.30;100.00;100556.34;5094679;28;19923;-76
2022/04/13 09:12:44;;;;;;;;;;;;;;;15.31;100.00;100539.56;5112804;28;19916;-77
2022/04/13 09:15:12;;;;;;;;;;;;;;;15.40;100.00;100549.41;5112383;28;19922;-75
2022/04/13 09:17:37;;;;;;;;;;;;;;;15.42;100.00;100561.81;5094651;28;19916;-78
2022/04/13 09:20:02;;;;;;;;;;;;;;;15.54;100.00;100578.75;5093936;28;19916;-75
2022/04/13 09:22:29;;;;;;;;;;;;;;;15.63;100.00;100586.81;5094860;28;19924;-77
2022/04/13 09:24:57;;;;;;;;;;;;;;;15.72;100.00;100583.34;5077797;28;20003;-78
2022/04/13 09:27:23;;;;;;;;;;;;;;;15.89;100.00;100588.88;5094699;28;19916;-78
2022/04/13 09:29:49;;;;;;;;;;;;;;;16.01;100.00;100590.78;5112267;28;19916;-78
2022/04/13 09:32:14;;;;;;;;;;;;;;;16.08;100.00;100597.91;5094594;28;19922;-78
2022/04/13 09:34:41;;;;;;;;;;;;;;;16.14;100.00;100620.13;5094382;28;19962;-75
2022/04/13 09:37:07;;;;;;;;;;;;;;;16.22;100.00;100624.59;5093332;28;20359;-75
2022/04/13 09:39:32;;;;;;;;;;;;;;;16.08;100.00;100641.31;5116049;28;20018;-78
2022/04/13 09:42:01;;;;;;;;;;;;;;;16.34;100.00;100645.97;5096373;28;19915;-74
2022/04/13 09:44:30;;;;;;;;;;;;;;;16.28;100.00;100653.88;5097168;28;20350;-77
2022/04/13 09:47:04;;;;;;;;;;;;;;;16.30;100.00;100646.84;5097563;28;19965;-76
2022/04/13 09:49:29;;;;;;;;;;;;;;;16.26;100.00;100671.59;5097092;28;19916;-76
2022/04/13 09:51:55;;;;;;;;;;;;;;;16.46;100.00;100667.34;5115121;28;19979;-77
2022/04/13 09:54:23;;;;;;;;;;;;;;;16.50;100.00;100676.25;5080044;28;19927;-76
2022/04/13 09:56:48;;;;;;;;;;;;;;;16.25;100.00;100683.06;5079623;28;19959;-76
2022/04/13 09:59:25;;;;;;;;;;;;;;;16.11;100.00;100683.84;5097556;28;19967;-76
2022/04/13 10:01:50;;;;;;;;;;;;;;;16.12;100.00;100685.59;5096981;28;19922;-76
2022/04/13 10:04:22;;;;;;;;;;;;;;;16.04;100.00;100686.41;5096642;28;19916;-76
2022/04/13 10:06:48;;;;;;;;;;;;;;;15.98;100.00;100690.75;5096671;28;19916;-76
2022/04/13 10:09:13;;;;;;;;;;;;;;;15.96;100.00;100689.00;5096984;28;19923;-78
2022/04/13 10:11:56;;;;;;;;;;;;;;;15.79;100.00;100683.47;5096384;28;20345;-77
2022/04/13 10:14:22;;;;;;;;;;;;;;;15.72;100.00;100674.53;5096578;28;19922;-76
2022/04/13 10:16:51;;;;;;;;;;;;;;;15.41;100.00;100676.78;5096152;28;19916;-78
2022/04/13 10:19:19;;;;;;;;;;;;;;;15.34;100.00;100677.56;5096681;28;19915;-78
2022/04/13 10:21:51;;;;;;;;;;;;;;;15.26;100.00;100668.63;5113870;28;19923;-76
2022/04/13 10:24:22;;;;;;;;;;;;;;;15.30;100.00;100661.56;5091966;28;19927;-76
2022/04/13 10:27:08;;;;;;;;;;;;;;;15.19;100.00;100658.78;5094246;28;19916;-75
2022/04/13 10:29:35;;;;;;;;;;;;;;;15.16;100.00;100656.09;5095079;28;19999;-75
2022/04/13 10:32:05;;;;;;;;;;;;;;;15.34;100.00;100644.84;5075723;28;19916;-75
2022/04/13 10:34:31;;;;;;;;;;;;;;;15.39;100.00;100644.00;5080803;28;19927;-76
2022/04/13 10:36:57;;;;;;;;;;;;;;;15.36;100.00;100636.00;5113948;28;19916;-77
2022/04/13 10:39:22;;;;;;;;;;;;;;;15.39;100.00;100627.22;5079425;28;19947;-76
2022/04/13 10:41:48;;;;;;;;;;;;;;;15.42;100.00;100600.72;5079316;28;19920;-78
2022/04/13 10:44:21;;;;;;;;;;;;;;;15.32;100.00;100573.19;5094934;28;19916;-77
2022/04/13 10:46:48;;;;;;;;;;;;;;;15.54;100.00;100563.72;5094871;28;19919;-78
2022/04/13 10:49:18;;;;;;;;;;;;;;;15.57;100.00;100536.34;5076060;28;20300;-78
2022/04/13 10:51:44;;;;;;;;;;;;;;;15.60;100.00;100533.72;5094018;28;19927;-78
2022/04/13 10:54:14;;;;;;;;;;;;;;;15.65;100.00;100502.78;5091769;28;20287;-77
2022/04/13 10:56:42;;;;;;;;;;;;;;;15.68;100.00;100483.38;5091543;28;19923;-78
2022/04/13 10:59:26;;;;;;;;;;;;;;;15.86;100.00;100470.25;5092001;28;19916;-78
2022/04/13 11:01:54;;;;;;;;;;;;;;;15.49;100.00;100464.59;5093516;28;19923;-77
2022/04/13 11:04:22;;;;;;;;;;;;;;;15.47;100.00;100460.16;5094539;28;20000;-78
2022/04/13 11:06:48;;;;;;;;;;;;;;;15.38;100.00;100467.16;5091714;28;19919;-77
2022/04/13 11:09:21;;;;;;;;;;;;;;;15.22;100.00;100474.03;5075637;28;19973;-76
2022/04/13 11:11:48;;;;;;;;;;;;;;;15.35;100.00;100461.81;5092756;28;19916;-78
2022/04/13 11:14:20;;;;;;;;;;;;;;;15.39;100.00;100466.25;5092745;28;19912;-78
2022/04/13 11:16:46;;;;;;;;;;;;;;;15.53;100.00;100455.78;5092502;28;19916;-77
2022/04/13 11:19:11;;;;;;;;;;;;;;;15.71;100.00;100463.03;5092755;28;19916;-77
2022/04/13 11:21:51;;;;;;;;;;;;;;;15.71;100.00;100464.81;5092576;28;20011;-78
2022/04/13 11:24:37;;;;;;;;;;;;;;;15.75;100.00;100474.56;5092792;28;20000;-78
2022/04/13 11:27:03;;;;;;;;;;;;;;;15.78;100.00;100479.94;5092528;28;19920;-77
2022/04/13 11:29:35;;;;;;;;;;;;;;;15.72;100.00;100491.38;5088344;28;19920;-77
2022/04/13 11:32:05;;;;;;;;;;;;;;;15.90;100.00;100500.41;5075327;28;19923;-77
2022/04/13 11:34:42;;;;;;;;;;;;;;;15.98;100.00;100510.19;5109279;28;19916;-77
2022/04/13 11:37:16;;;;;;;;;;;;;;;16.04;100.00;100519.97;5093648;28;20009;-76
2022/04/13 11:39:59;;;;;;;;;;;;;;;16.24;100.00;100525.44;5058581;28;20431;-78
2022/04/13 11:42:32;;;;;;;;;;;;;;;16.65;100.00;100543.44;5075509;28;20014;-78
2022/04/13 11:45:19;;;;;;;;;;;;;;;16.57;100.00;100557.56;5072403;28;20641;-77
2022/04/13 11:47:51;;;;;;;;;;;;;;;16.65;100.00;100567.38;5054538;28;19953;-78
2022/04/13 11:50:17;;;;;;;;;;;;;;;17.01;100.00;100573.84;5054747;28;19916;-77
2022/04/13 11:52:46;;;;;;;;;;;;;;;16.99;100.00;100607.50;5051080;28;19928;-77
2022/04/13 11:55:18;;;;;;;;;;;;;;;17.03;100.00;100609.31;5051033;28;19920;-77
2022/04/13 11:57:52;;;;;;;;;;;;;;;17.19;100.00;100615.59;5051102;28;20376;-77
2022/04/13 12:00:38;;;;;;;;;;;;;;;17.08;100.00;100638.59;5083035;28;20457;-77
2022/04/13 12:03:14;;;;;;;;;;;;;;;17.08;100.00;100622.63;5051554;28;20011;-78
2022/04/13 12:05:41;;;;;;;;;;;;;;;17.36;100.00;100636.09;5076178;28;20058;-77
2022/04/13 12:08:11;;;;;;;;;;;;;;;17.68;100.00;100644.19;5091412;28;19920;-78
2022/04/13 12:10:37;;;;;;;;;;;;;;;17.73;100.00;100658.41;5091104;28;19959;-78
2022/04/13 12:13:03;;;;;;;;;;;;;;;17.87;100.00;100665.56;5091572;28;19993;-78
2022/04/13 12:15:40;;;;;;;;;;;;;;;18.07;100.00;100682.53;5092602;28;19926;-78
2022/04/13 12:18:11;;;;;;;;;;;;;;;18.25;100.00;100683.44;5091377;28;19969;-78
2022/04/13 12:20:37;;;;;;;;;;;;;;;18.18;100.00;100692.31;5091080;28;19916;-78
2022/04/13 12:23:14;;;;;;;;;;;;;;;18.05;100.00;100699.38;5090447;28;20004;-77
2022/04/13 12:25:43;;;;;;;;;;;;;;;18.10;100.00;100713.59;5092512;28;20391;-75
2022/04/13 12:28:08;;;;;;;;;;;;;;;17.89;100.00;100709.97;5090987;28;19923;-76